createdAt,value
2022-08-07T00:03:04.996Z,1.10
2022-08-07T00:08:14.522Z,1.02
2022-08-07T00:13:24.038Z,1.00
2022-08-07T00:18:33.642Z,0.98
2022-08-07T00:23:42.807Z,1.00
2022-08-07T00:28:56.560Z,1.17
2022-08-07T00:34:08.485Z,1.03
2022-08-07T00:39:16.973Z,0.80
2022-08-07T00:44:22.762Z,0.80
2022-08-07T00:50:21.290Z,0.80
2022-08-07T00:55:04.950Z,0.80
2022-08-07T01:00:16.973Z,0.95
2022-08-07T01:05:29.880Z,1.20
2022-08-07T01:10:47.648Z,1.17
2022-08-07T01:16:05.496Z,1.20
2022-08-07T01:21:25.910Z,1.53
2022-08-07T01:26:35.996Z,1.63
2022-08-07T01:31:48.095Z,1.45
2022-08-07T01:36:57.990Z,1.52
2022-08-07T01:42:37.725Z,1.40
2022-08-07T01:48:18.555Z,1.20
2022-08-07T01:53:08.601Z,1.17
2022-08-07T01:58:29.025Z,1.13
2022-08-07T02:03:48.924Z,1.00
2022-08-07T02:09:03.804Z,1.00
2022-08-07T02:14:35.478Z,0.77
2022-08-07T02:20:06.829Z,0.80
2022-08-07T02:25:13.743Z,0.80
2022-08-07T02:30:30.113Z,1.45
2022-08-07T02:36:29.287Z,0.80
2022-08-07T02:41:11.694Z,0.95
2022-08-07T02:46:29.338Z,1.00
2022-08-07T02:51:49.702Z,1.33
2022-08-07T02:57:06.533Z,1.20
2022-08-07T03:02:13.005Z,1.42
2022-08-07T03:07:25.682Z,1.33
2022-08-07T03:12:51.887Z,1.40
2022-08-07T03:17:59.023Z,1.50
2022-08-07T03:23:06.032Z,1.42
2022-08-07T03:28:37.717Z,1.57
2022-08-07T03:33:47.319Z,1.35
2022-08-07T03:38:58.178Z,1.13
2022-08-07T03:44:15.347Z,1.00
2022-08-07T03:49:22.123Z,1.10
2022-08-07T03:54:35.809Z,0.90
2022-08-07T04:00:01.690Z,1.00
2022-08-07T04:05:39.663Z,0.87
2022-08-07T04:10:54.339Z,0.98
2022-08-07T04:16:31.162Z,0.85
2022-08-07T04:21:39.609Z,0.90
2022-08-07T04:27:05.313Z,0.80
2022-08-07T04:32:27.195Z,0.60
2022-08-07T04:38:03.219Z,0.90
2022-08-07T04:43:09.184Z,0.70
2022-08-07T04:48:30.957Z,0.70
2022-08-07T04:54:05.895Z,0.90
2022-08-07T05:00:11.476Z,0.60
2022-08-07T05:04:50.329Z,0.65
2022-08-07T05:10:02.287Z,1.02
2022-08-07T05:15:23.223Z,0.90
2022-08-07T05:20:42.809Z,1.00
2022-08-07T05:26:11.897Z,1.25
2022-08-07T05:31:17.586Z,1.57
2022-08-07T05:36:30.310Z,1.60
2022-08-07T05:42:02.636Z,1.52
2022-08-07T05:47:18.343Z,1.73
2022-08-07T05:52:32.685Z,1.40
2022-08-07T05:57:42.174Z,1.92
2022-08-07T06:02:52.192Z,1.70
2022-08-07T06:08:14.648Z,1.73
2022-08-07T06:14:13.298Z,2.00
2022-08-07T06:18:56.383Z,1.20
2022-08-07T06:24:45.476Z,1.43
2022-08-07T06:29:34.038Z,1.30
2022-08-07T06:34:40.669Z,1.20
2022-08-07T06:40:13.585Z,1.10
2022-08-07T06:45:23.433Z,1.27
2022-08-07T06:50:36.200Z,1.00
2022-08-07T06:56:01.362Z,0.93
2022-08-07T07:01:14.306Z,1.10
2022-08-07T07:06:26.061Z,1.00
2022-08-07T07:12:08.255Z,0.95
2022-08-07T07:17:06.620Z,1.00
2022-08-07T07:22:34.184Z,1.00
2022-08-07T07:28:01.900Z,1.20
2022-08-07T07:33:11.486Z,1.10
2022-08-07T07:38:21.524Z,0.90
2022-08-07T07:44:13.841Z,0.88
2022-08-07T07:49:08.807Z,0.80
2022-08-07T07:54:17.033Z,0.83
2022-08-07T07:59:53.377Z,0.98
2022-08-07T08:04:58.575Z,0.80
2022-08-07T08:10:05.899Z,0.80
2022-08-07T08:15:14.521Z,1.00
2022-08-07T08:20:23.905Z,0.80
2022-08-07T08:25:50.050Z,0.60
2022-08-07T08:31:02.473Z,0.70
2022-08-07T08:36:13.128Z,0.82
2022-08-07T08:41:31.510Z,0.70
2022-08-07T08:47:05.443Z,0.70
2022-08-07T08:52:21.409Z,0.50
2022-08-07T08:57:33.814Z,1.20
2022-08-07T09:02:52.364Z,0.63
2022-08-07T09:08:07.737Z,0.70
2022-08-07T09:13:35.236Z,0.43
2022-08-07T09:19:07.340Z,0.50
2022-08-07T09:24:58.595Z,0.50
2022-08-07T09:30:09.041Z,0.50
2022-08-07T09:36:03.159Z,0.50
2022-08-07T09:41:06.044Z,0.60
2022-08-07T09:47:23.589Z,0.55
2022-08-07T09:52:10.543Z,0.70
2022-08-07T09:57:47.465Z,0.60
2022-08-07T10:04:06.192Z,0.63
2022-08-07T10:09:10.239Z,0.73
2022-08-07T10:14:34.136Z,0.57
2022-08-07T10:19:49.549Z,0.80
2022-08-07T10:25:22.805Z,0.60
2022-08-07T10:30:36.694Z,0.50
2022-08-07T10:36:11.336Z,0.60
2022-08-07T10:41:52.893Z,0.60
2022-08-07T10:47:00.991Z,0.55
2022-08-07T10:52:13.774Z,0.50
2022-08-07T10:57:34.684Z,0.60
2022-08-07T11:02:49.464Z,0.50
2022-08-07T11:08:11.760Z,0.40
2022-08-07T11:14:56.925Z,0.40
2022-08-07T11:18:54.431Z,0.40
2022-08-07T11:24:05.264Z,0.63
2022-08-07T11:29:40.763Z,0.40
2022-08-07T11:34:50.835Z,0.50
2022-08-07T11:40:06.234Z,0.50
2022-08-07T11:45:23.796Z,0.50
2022-08-07T11:50:57.695Z,0.50
2022-08-07T11:56:27.044Z,0.57
2022-08-07T12:01:59.611Z,0.73
2022-08-07T12:07:20.276Z,0.80
2022-08-07T12:12:41.274Z,0.70
2022-08-07T12:17:59.365Z,0.50
2022-08-07T12:24:04.797Z,0.80
2022-08-07T12:28:58.550Z,0.52
2022-08-07T12:34:11.297Z,0.88
2022-08-07T12:39:42.263Z,0.50
2022-08-07T12:44:47.428Z,0.60
2022-08-07T12:50:04.961Z,0.60
2022-08-07T12:55:41.320Z,0.70
2022-08-07T13:01:09.277Z,0.60
2022-08-07T13:06:33.018Z,0.40
2022-08-07T13:12:03.397Z,0.63
2022-08-07T13:17:21.330Z,0.80
2022-08-07T13:22:36.203Z,0.60
2022-08-07T13:28:13.286Z,0.60
2022-08-07T13:34:32.757Z,0.87
2022-08-07T13:38:54.490Z,0.70
2022-08-07T13:44:05.251Z,0.80
2022-08-07T13:50:35.818Z,0.60
2022-08-07T13:54:49.605Z,0.60
2022-08-07T13:59:57.696Z,0.68
2022-08-07T14:05:07.261Z,0.60
2022-08-07T14:10:24.520Z,0.50
2022-08-07T14:15:38.456Z,0.60
2022-08-07T14:20:54.769Z,0.60
2022-08-07T14:26:08.658Z,0.80
2022-08-07T14:31:16.533Z,0.60
2022-08-07T14:36:22.879Z,0.82
2022-08-07T14:42:18.505Z,0.60
2022-08-07T14:47:14.698Z,0.70
2022-08-07T14:52:27.755Z,0.70
2022-08-07T14:57:54.601Z,0.75
2022-08-07T15:08:54.569Z,0.63
2022-08-07T15:20:30.798Z,0.50
2022-08-07T15:25:17.639Z,0.73
2022-08-07T15:30:28.691Z,0.60
2022-08-07T15:36:00.675Z,0.70
2022-08-07T15:52:13.897Z,0.60
2022-08-07T15:57:39.777Z,0.70
2022-08-07T16:03:00.304Z,0.70
2022-08-07T16:08:31.647Z,1.02
2022-08-07T16:13:59.962Z,0.80
2022-08-07T16:19:41.952Z,0.80
2022-08-07T16:24:56.964Z,0.95
2022-08-07T16:30:30.240Z,1.23
2022-08-07T16:35:58.948Z,0.90
2022-08-07T16:41:41.068Z,0.80
2022-08-07T16:47:16.598Z,0.80
2022-08-07T16:52:52.666Z,0.93
2022-08-07T16:58:08.262Z,0.85
2022-08-07T17:03:57.740Z,0.90
2022-08-07T17:09:09.312Z,0.90
2022-08-07T17:14:22.298Z,0.90
2022-08-07T17:20:02.567Z,0.85
2022-08-07T17:25:15.736Z,1.27
2022-08-07T17:30:26.622Z,1.03
2022-08-07T17:35:50.675Z,1.20
2022-08-07T17:42:01.523Z,0.95
2022-08-07T17:46:43.705Z,0.80
2022-08-07T17:52:01.239Z,1.20
2022-08-07T17:57:24.323Z,1.00
2022-08-07T18:02:35.404Z,1.10
2022-08-07T18:07:46.033Z,0.90
2022-08-07T18:13:10.963Z,0.90
2022-08-07T18:19:02.542Z,1.20
2022-08-07T18:24:07.107Z,1.10
2022-08-07T18:30:07.865Z,0.93
2022-08-07T18:35:11.264Z,1.17
2022-08-07T18:40:42.517Z,1.30
2022-08-07T18:46:24.437Z,1.00
2022-08-07T18:52:37.929Z,1.10
2022-08-07T18:57:30.110Z,1.27
2022-08-07T19:02:45.198Z,1.38
2022-08-07T19:08:05.229Z,1.15
2022-08-07T19:13:21.621Z,1.10
2022-08-07T19:18:44.798Z,1.20
2022-08-07T19:23:58.688Z,1.35
2022-08-07T19:30:57.442Z,1.30
2022-08-07T19:34:47.870Z,1.03
2022-08-07T19:40:02.054Z,1.13
2022-08-07T19:45:11.445Z,1.10
2022-08-07T19:50:41.093Z,1.00
2022-08-07T19:55:58.534Z,1.17
2022-08-07T20:01:09.660Z,1.15
2022-08-07T20:06:28.529Z,1.10
2022-08-07T20:12:22.166Z,1.20
2022-08-07T20:17:12.693Z,1.13
2022-08-07T20:22:28.922Z,1.27
2022-08-07T20:27:48.202Z,1.50
2022-08-07T20:33:09.026Z,1.35
2022-08-07T20:38:32.856Z,1.40
2022-08-07T20:43:47.748Z,1.17
2022-08-07T20:49:53.936Z,0.98
2022-08-07T20:54:29.615Z,1.10
2022-08-07T21:00:07.236Z,0.93
2022-08-07T21:05:16.215Z,1.40
2022-08-07T21:10:31.678Z,1.50
2022-08-07T21:15:58.769Z,1.40
2022-08-07T21:21:06.975Z,1.50
2022-08-07T21:26:39.602Z,1.48
2022-08-07T21:32:47.821Z,1.30
2022-08-07T21:37:58.065Z,1.37
2022-08-07T21:43:07.783Z,1.30
2022-08-07T21:48:28.062Z,1.45
2022-08-07T21:53:46.484Z,1.20
2022-08-07T21:59:07.099Z,1.53
2022-08-07T22:04:21.746Z,1.52
2022-08-07T22:09:34.802Z,1.20
2022-08-07T22:16:38.552Z,1.50
2022-08-07T22:20:44.772Z,1.20
2022-08-07T22:26:00.412Z,1.27
2022-08-07T22:31:55.879Z,1.40
2022-08-07T22:36:52.941Z,1.75
2022-08-07T22:42:19.790Z,1.27
2022-08-07T22:47:45.136Z,1.57
2022-08-07T22:54:05.010Z,1.73
2022-08-07T22:59:24.476Z,1.65
2022-08-07T23:04:58.111Z,1.70
2022-08-07T23:10:37.895Z,1.80
2022-08-07T23:16:07.182Z,1.88
2022-08-07T23:21:36.857Z,1.80
2022-08-07T23:26:59.073Z,1.87
2022-08-07T23:34:20.339Z,1.60
2022-08-07T23:38:01.309Z,2.08
2022-08-07T23:43:39.391Z,1.50
2022-08-07T23:49:20.499Z,1.90
2022-08-07T23:54:46.307Z,1.70
